Time;durP1;ratioP1;P1;durP2;ratioP2;P2;SDS_P1;SDS_P2;PMS_P1;PMS_P2;Temp;Humidity;BMP_temperature;BMP_pressure;BME280_temperature;BME280_humidity;BME280_pressure;Samples;Min_cycle;Max_cycle;Signal;HPM_P1;HPM_P2
2022/08/15 00:01:17;;;;;;;11.20;7.90;;;22.70;98.10;;;-147.18;100.00;67318.16;5009824;28;20037;-85
2022/08/15 00:03:49;;;;;;;9.85;7.93;;;22.70;98.10;;;-147.18;100.00;67318.16;5010420;28;20615;-85
2022/08/15 00:06:21;;;;;;;9.13;7.53;;;22.70;98.10;;;-147.18;100.00;67318.16;5009542;28;20045;-85
2022/08/15 00:08:51;;;;;;;11.52;7.80;;;22.60;98.10;;;-147.18;100.00;67318.16;4993457;28;20057;-85
2022/08/15 00:11:25;;;;;;;9.80;7.82;;;22.70;98.20;;;-147.18;100.00;67318.16;5011028;28;20046;-85
2022/08/15 00:13:57;;;;;;;10.30;7.47;;;22.60;98.20;;;-147.18;100.00;67318.16;5011126;28;20056;-86
2022/08/15 00:16:25;;;;;;;9.38;7.82;;;22.60;98.30;;;-147.18;100.00;67318.16;5004801;28;20453;-85
2022/08/15 00:18:54;;;;;;;13.40;8.10;;;22.60;98.40;;;-147.18;100.00;67318.16;5005872;28;20407;-86
2022/08/15 00:21:21;;;;;;;10.98;7.70;;;22.50;98.50;;;-147.18;100.00;67318.16;5010844;28;20065;-85
2022/08/15 00:23:48;;;;;;;10.93;8.07;;;22.50;98.80;;;-147.18;100.00;67318.16;5009898;28;20053;-85
2022/08/15 00:26:16;;;;;;;10.63;8.00;;;22.50;99.00;;;-147.18;100.00;67318.16;5010333;28;20042;-86
2022/08/15 00:28:43;;;;;;;8.80;7.47;;;22.50;99.30;;;-147.18;100.00;67318.16;5009629;28;20122;-85
2022/08/15 00:31:12;;;;;;;10.35;7.72;;;22.50;99.40;;;-147.18;100.00;67318.16;4992534;28;20532;-85
2022/08/15 00:33:40;;;;;;;10.30;7.47;;;22.50;99.60;;;-147.18;100.00;67318.16;5009423;28;20038;-85
2022/08/15 00:36:10;;;;;;;11.57;8.32;;;22.40;99.50;;;-147.18;100.00;67318.16;5006664;28;20515;-85
2022/08/15 00:38:37;;;;;;;8.30;7.32;;;22.50;99.60;;;-147.18;100.00;67318.16;5004181;28;20053;-86
2022/08/15 00:43:59;;;;;;;12.73;8.00;;;22.50;99.60;;;-147.18;100.00;67318.16;4992691;28;20065;-85
2022/08/15 00:46:30;;;;;;;10.80;8.07;;;22.50;99.80;;;-147.18;100.00;67318.16;5008959;28;20069;-85
2022/08/15 00:48:58;;;;;;;9.63;7.20;;;22.50;99.80;;;-147.18;100.00;67318.16;4991254;28;20137;-85
2022/08/15 00:51:32;;;;;;;11.02;7.45;;;22.50;99.90;;;-147.18;100.00;67318.16;5008401;28;20337;-85
2022/08/15 00:54:06;;;;;;;10.77;7.63;;;22.50;99.80;;;-147.18;100.00;67318.16;4991086;28;20123;-85
2022/08/15 00:56:41;;;;;;;8.25;6.90;;;22.50;99.50;;;-147.18;100.00;67318.16;4992493;28;20056;-85
2022/08/15 00:59:13;;;;;;;9.05;6.90;;;22.50;99.30;;;-147.18;100.00;67318.16;5010036;28;20048;-85
2022/08/15 01:01:42;;;;;;;8.32;6.80;;;22.40;98.50;;;-147.18;100.00;67318.16;4991382;28;20288;-85
2022/08/15 01:04:12;;;;;;;8.45;6.20;;;22.40;97.80;;;-147.18;100.00;67318.16;5010338;28;20495;-85
2022/08/15 01:06:41;;;;;;;8.32;6.43;;;22.40;96.40;;;-147.18;100.00;67318.16;4992222;28;20045;-86
2022/08/15 01:09:09;;;;;;;7.63;6.22;;;22.50;96.30;;;-147.18;100.00;67318.16;4982538;28;20038;-86
2022/08/15 01:11:43;;;;;;;9.00;5.95;;;22.50;95.90;;;-147.18;100.00;67318.16;4992394;28;20068;-86
2022/08/15 01:14:10;;;;;;;7.50;6.15;;;22.50;95.60;;;-147.18;100.00;67318.16;5008715;28;20066;-85
2022/08/15 01:16:39;;;;;;;8.82;6.18;;;22.50;94.70;;;-147.18;100.00;67318.16;5008933;28;20037;-86
2022/08/15 01:19:15;;;;;;;7.20;5.90;;;22.50;94.50;;;-147.18;100.00;67318.16;4993304;28;20057;-85
2022/08/15 01:22:10;;;;;;;8.00;5.97;;;22.50;94.20;;;-147.18;100.00;67318.16;4996888;28;20476;-85
2022/08/15 01:24:56;;;;;;;8.48;6.05;;;22.50;94.00;;;-147.18;100.00;67318.16;5011178;28;20053;-86
2022/08/15 01:27:30;;;;;;;7.78;5.63;;;22.60;93.70;;;-147.18;100.00;67318.16;5011584;28;20061;-86
2022/08/15 01:30:00;;;;;;;7.18;5.90;;;22.60;93.40;;;-147.18;100.00;67318.16;5013591;28;20041;-86
2022/08/15 01:32:28;;;;;;;7.63;6.00;;;22.60;92.60;;;-147.18;100.00;67318.16;5011321;28;20048;-86
2022/08/15 01:34:55;;;;;;;9.52;6.20;;;22.60;92.50;;;-147.18;100.00;67318.16;5005400;28;20084;-86
2022/08/15 01:37:24;;;;;;;7.28;5.88;;;22.60;91.90;;;-147.18;100.00;67318.16;5012107;28;20122;-86
2022/08/15 01:40:01;;;;;;;8.73;5.47;;;22.60;91.50;;;-147.18;100.00;67318.16;5011241;28;21390;-85
2022/08/15 01:42:37;;;;;;;6.80;5.30;;;22.70;90.70;;;-147.18;100.00;67318.16;5005405;28;20531;-86
2022/08/15 01:45:11;;;;;;;9.00;5.68;;;22.70;90.20;;;-147.18;100.00;67318.16;4995943;28;20049;-86
2022/08/15 01:47:48;;;;;;;8.15;5.30;;;22.70;88.60;;;-147.18;100.00;67318.16;4992674;28;20129;-86
2022/08/15 01:50:20;;;;;;;6.93;5.43;;;22.70;88.50;;;-147.18;100.00;67318.16;5012507;28;20061;-86
2022/08/15 01:52:51;;;;;;;8.45;4.97;;;22.70;88.40;;;-147.18;100.00;67318.16;4995525;28;20050;-86
2022/08/15 01:55:23;;;;;;;;;;;22.80;87.90;;;-147.18;100.00;67318.16;5012731;28;20045;-86
2022/08/15 01:57:50;;;;;;;8.65;5.68;;;22.80;87.50;;;-147.18;100.00;67318.16;4995795;28;19984;-85
2022/08/15 02:00:18;;;;;;;8.02;5.10;;;22.80;87.50;;;-147.18;100.00;67318.16;4995635;28;20164;-86
2022/08/15 02:02:46;;;;;;;7.72;5.70;;;22.90;86.90;;;-147.18;100.00;67318.16;4989977;28;20046;-86
2022/08/15 02:05:14;;;;;;;9.32;5.68;;;22.90;86.60;;;-147.18;100.00;67318.16;4986225;28;20046;-86
2022/08/15 02:07:42;;;;;;;11.82;5.43;;;22.90;86.90;;;-147.18;100.00;67318.16;4994969;28;20050;-86
2022/08/15 02:10:10;;;;;;;7.28;5.18;;;22.90;86.70;;;-147.18;100.00;67318.16;4995672;28;20081;-86
2022/08/15 02:12:41;;;;;;;7.50;5.68;;;22.90;86.80;;;-147.18;100.00;67318.16;5010168;28;20152;-86
2022/08/15 02:15:15;;;;;;;8.05;5.13;;;22.90;85.90;;;-147.18;100.00;67318.16;4999344;28;20073;-86
2022/08/15 02:17:45;;;;;;;7.63;4.85;;;23.00;86.40;;;-147.18;100.00;67318.16;5011789;28;20056;-86
2022/08/15 02:20:16;;;;;;;7.00;4.70;;;23.00;85.90;;;-147.18;100.00;67318.16;5006332;28;20047;-86
2022/08/15 02:22:43;;;;;;;7.25;4.88;;;23.00;85.60;;;-147.18;100.00;67318.16;5012133;28;20407;-86
2022/08/15 02:25:10;;;;;;;7.40;4.60;;;23.00;85.60;;;-147.18;100.00;67318.16;5011551;28;20535;-86
2022/08/15 02:27:40;;;;;;;5.90;4.55;;;23.00;84.40;;;-147.18;100.00;67318.16;5013050;28;20546;-86
2022/08/15 02:30:15;;;;;;;9.98;4.65;;;23.00;84.50;;;-147.18;100.00;67318.16;4988343;28;20096;-86
2022/08/15 02:32:47;;;;;;;7.65;4.03;;;23.00;84.40;;;-147.18;100.00;67318.16;5010815;28;20141;-86
2022/08/15 02:35:17;;;;;;;6.90;4.50;;;23.00;84.00;;;-147.18;100.00;67318.16;4992614;28;20428;-86
2022/08/15 02:37:47;;;;;;;7.37;4.60;;;23.00;84.00;;;-147.18;100.00;67318.16;5003234;28;20056;-86
2022/08/15 02:40:16;;;;;;;7.38;4.20;;;23.00;84.10;;;-147.18;100.00;67318.16;5010676;28;20296;-86
2022/08/15 02:42:46;;;;;;;6.13;4.00;;;23.00;84.00;;;-147.18;100.00;67318.16;5012806;28;20054;-86
2022/08/15 02:45:14;;;;;;;8.10;4.05;;;23.00;83.40;;;-147.18;100.00;67318.16;5008979;28;20054;-86
2022/08/15 02:47:44;;;;;;;7.00;4.57;;;23.00;83.60;;;-147.18;100.00;67318.16;4994887;28;20046;-86
2022/08/15 02:50:14;;;;;;;8.40;4.00;;;23.00;83.30;;;-147.18;100.00;67318.16;4994728;28;20100;-85
2022/08/15 02:52:42;;;;;;;7.30;4.28;;;23.00;83.50;;;-147.18;100.00;67318.16;4993450;28;20416;-86
2022/08/15 02:55:14;;;;;;;7.15;4.35;;;23.00;83.40;;;-147.18;100.00;67318.16;4994382;28;20593;-86
2022/08/15 02:57:41;;;;;;;8.55;3.83;;;23.00;83.00;;;-147.18;100.00;67318.16;5009168;28;20396;-86
2022/08/15 03:00:16;;;;;;;11.57;3.88;;;23.00;82.70;;;-147.18;100.00;67318.16;5011773;28;20045;-86
2022/08/15 03:02:53;;;;;;;7.40;3.78;;;23.00;82.80;;;-147.18;100.00;67318.16;4994767;28;20146;-86
2022/08/15 03:05:24;;;;;;;5.95;4.10;;;23.00;83.20;;;-147.18;100.00;67318.16;4988743;28;20472;-86
2022/08/15 03:07:52;;;;;;;6.93;3.90;;;23.00;83.10;;;-147.18;100.00;67318.16;5010098;28;20042;-85
2022/08/15 03:10:20;;;;;;;8.25;4.22;;;23.00;83.40;;;-147.18;100.00;67318.16;4991327;28;20088;-86
2022/08/15 03:12:57;;;;;;;6.50;4.10;;;23.00;83.50;;;-147.18;100.00;67318.16;5012090;28;20523;-85
2022/08/15 03:15:32;;;;;;;7.70;3.72;;;23.00;83.50;;;-147.18;100.00;67318.16;4993906;28;20073;-86
2022/08/15 03:18:00;;;;;;;6.63;3.72;;;23.00;83.10;;;-147.18;100.00;67318.16;4991266;28;20101;-86
2022/08/15 03:20:28;;;;;;;6.88;3.63;;;23.00;83.10;;;-147.18;100.00;67318.16;4988191;28;20050;-86
2022/08/15 03:22:55;;;;;;;6.82;3.78;;;22.90;83.70;;;-147.18;100.00;67318.16;5009056;28;20056;-86
2022/08/15 03:25:27;;;;;;;7.72;3.80;;;22.90;82.80;;;-147.18;100.00;67318.16;5008458;28;20053;-86
2022/08/15 03:27:55;;;;;;;7.70;3.80;;;22.90;83.10;;;-147.18;100.00;67318.16;4992400;28;20073;-85
2022/08/15 03:30:24;;;;;;;5.85;3.83;;;22.90;83.40;;;-147.18;100.00;67318.16;5009103;28;20221;-86
2022/08/15 03:32:59;;;;;;;6.65;3.40;;;22.90;83.30;;;-147.18;100.00;67318.16;4991810;28;20046;-86
2022/08/15 03:35:37;;;;;;;7.85;3.90;;;22.90;83.10;;;-147.18;100.00;67318.16;5006144;28;20053;-86
2022/08/15 03:38:05;;;;;;;6.93;3.42;;;22.90;82.80;;;-147.18;100.00;67318.16;4994011;28;20498;-86
2022/08/15 03:40:34;;;;;;;6.28;3.20;;;22.80;82.80;;;-147.18;100.00;67318.16;4990638;28;20645;-86
2022/08/15 03:43:06;;;;;;;10.30;3.88;;;22.80;83.00;;;-147.18;100.00;67318.16;4990383;28;20042;-86
2022/08/15 03:45:35;;;;;;;7.30;3.80;;;22.90;83.00;;;-147.18;100.00;67318.16;5010206;28;20426;-86
2022/08/15 03:48:06;;;;;;;8.85;3.85;;;22.80;83.20;;;-147.18;100.00;67318.16;4993016;28;20045;-85
2022/08/15 03:50:34;;;;;;;5.40;3.60;;;22.80;83.20;;;-147.18;100.00;67318.16;4993910;28;20408;-86
2022/08/15 03:53:07;;;;;;;8.20;3.70;;;22.80;83.40;;;-147.18;100.00;67318.16;4994019;28;20084;-86
2022/08/15 03:55:39;;;;;;;7.25;3.40;;;22.80;83.60;;;-147.18;100.00;67318.16;4992828;28;20133;-86
2022/08/15 03:58:10;;;;;;;6.63;3.30;;;22.80;83.50;;;-147.18;100.00;67318.16;4989966;28;20133;-86
2022/08/15 04:00:45;;;;;;;6.20;3.35;;;22.80;84.00;;;-147.18;100.00;67318.16;4985235;28;20431;-86
2022/08/15 04:03:15;;;;;;;8.70;3.28;;;22.70;83.90;;;-147.18;100.00;67318.16;5009913;28;20077;-86
2022/08/15 04:05:49;;;;;;;5.28;3.40;;;22.70;84.10;;;-147.18;100.00;67318.16;4992857;28;20042;-85
2022/08/15 04:08:20;;;;;;;6.30;3.42;;;22.70;84.20;;;-147.18;100.00;67318.16;5002794;28;20128;-86
2022/08/15 04:10:50;;;;;;;8.07;3.40;;;22.70;84.40;;;-147.18;100.00;67318.16;5011161;28;20042;-86
2022/08/15 04:13:24;;;;;;;7.43;3.55;;;22.60;84.10;;;-147.18;100.00;67318.16;4993255;28;20061;-86
2022/08/15 04:15:55;;;;;;;6.65;3.47;;;22.70;84.30;;;-147.18;100.00;67318.16;4991461;28;20081;-86
2022/08/15 04:18:24;;;;;;;6.60;3.33;;;22.60;84.20;;;-147.18;100.00;67318.16;4994121;28;20041;-92
2022/08/15 04:20:53;;;;;;;6.50;3.40;;;22.60;84.50;;;-147.18;100.00;67318.16;4992866;28;20045;-94
2022/08/15 04:23:20;;;;;;;8.40;3.08;;;22.60;84.60;;;-147.18;100.00;67318.16;4992647;28;20048;-88
2022/08/15 04:25:47;;;;;;;6.53;3.85;;;22.60;84.10;;;-147.18;100.00;67318.16;5009118;28;20136;-83
2022/08/15 04:28:17;;;;;;;7.00;3.38;;;22.60;84.50;;;-147.18;100.00;67318.16;4992241;28;20067;-85
2022/08/15 04:30:48;;;;;;;6.47;3.47;;;22.60;84.50;;;-147.18;100.00;67318.16;5008756;28;20527;-85
2022/08/15 04:33:20;;;;;;;5.87;3.27;;;22.60;85.10;;;-147.18;100.00;67318.16;4987552;28;20145;-83
2022/08/15 04:35:51;;;;;;;7.88;3.45;;;22.60;85.10;;;-147.18;100.00;67318.16;4988130;28;20323;-84
2022/08/15 04:38:19;;;;;;;;;;;22.60;85.30;;;-147.18;100.00;67318.16;4996906;28;20061;-84
2022/08/15 04:40:49;;;;;;;7.93;3.85;;;22.60;85.60;;;-147.18;100.00;67318.16;4982996;28;20327;-84
2022/08/15 04:43:21;;;;;;;7.25;3.38;;;22.60;86.10;;;-147.18;100.00;67318.16;4992931;28;20413;-84
2022/08/15 04:45:50;;;;;;;8.45;3.35;;;22.60;86.70;;;-147.18;100.00;67318.16;4991920;28;20050;-83
2022/08/15 04:48:20;;;;;;;6.55;3.47;;;22.60;86.80;;;-147.18;100.00;67318.16;5008421;28;20041;-84
2022/08/15 04:50:52;;;;;;;7.47;3.03;;;22.60;86.60;;;-147.18;100.00;67318.16;4992768;28;20096;-84
2022/08/15 04:53:25;;;;;;;8.73;3.25;;;22.60;86.20;;;-147.18;100.00;67318.16;5007875;28;20065;-84
2022/08/15 04:55:54;;;;;;;7.00;3.25;;;22.60;86.10;;;-147.18;100.00;67318.16;5008977;28;20046;-84
2022/08/15 04:58:22;;;;;;;6.60;3.33;;;22.60;86.20;;;-147.18;100.00;67318.16;4992716;28;20419;-83
2022/08/15 05:00:57;;;;;;;5.50;3.40;;;22.60;86.50;;;-147.18;100.00;67318.16;4994501;28;20037;-83
2022/08/15 05:03:37;;;;;;;7.07;3.05;;;22.60;86.50;;;-147.18;100.00;67318.16;5007534;28;20415;-83
2022/08/15 05:06:09;;;;;;;7.17;3.00;;;22.60;86.20;;;-147.18;100.00;67318.16;5007142;28;20081;-83
2022/08/15 05:08:39;;;;;;;9.50;3.00;;;22.70;85.60;;;-147.18;100.00;67318.16;4986891;28;20153;-82
2022/08/15 05:11:13;;;;;;;8.57;3.22;;;22.70;85.50;;;-147.18;100.00;67318.16;4991651;28;20061;-82
2022/08/15 05:13:42;;;;;;;6.18;3.17;;;22.70;85.20;;;-147.18;100.00;67318.16;4991710;28;20042;-82
2022/08/15 05:16:13;;;;;;;9.05;3.03;;;22.80;84.80;;;-147.18;100.00;67318.16;4990519;28;20101;-82
2022/08/15 05:18:44;;;;;;;5.35;3.00;;;22.80;84.60;;;-147.18;100.00;67318.16;4989936;28;20096;-81
2022/08/15 05:21:12;;;;;;;5.43;2.75;;;22.80;84.80;;;-147.18;100.00;67318.16;4993142;28;20052;-81
2022/08/15 05:23:42;;;;;;;5.97;3.25;;;22.80;85.00;;;-147.18;100.00;67318.16;4982098;28;20567;-87
2022/08/15 05:26:15;;;;;;;8.60;3.33;;;22.80;85.70;;;-147.18;100.00;67318.16;4991000;28;20060;-84
2022/08/15 05:28:42;;;;;;;8.85;3.00;;;22.80;85.50;;;-147.18;100.00;67318.16;5009911;28;20045;-79
2022/08/15 05:31:14;;;;;;;7.60;2.97;;;22.80;85.50;;;-147.18;100.00;67318.16;5006652;28;20046;-82
2022/08/15 05:33:45;;;;;;;6.65;3.20;;;22.80;85.60;;;-147.18;100.00;67318.16;4972928;28;20060;-82
2022/08/15 05:36:14;;;;;;;7.63;2.97;;;22.90;85.50;;;-147.18;100.00;67318.16;5005590;28;20077;-82
2022/08/15 05:38:48;;;;;;;7.07;2.57;;;22.80;84.90;;;-147.18;100.00;67318.16;4981544;28;20069;-83
2022/08/15 05:41:31;;;;;;;9.13;3.53;;;22.90;84.60;;;-147.18;100.00;67318.16;4992456;28;20111;-83
2022/08/15 05:44:07;;;;;;;10.95;2.97;;;22.90;84.50;;;-147.18;100.00;67318.16;4991703;28;20042;-83
2022/08/15 05:46:44;;;;;;;6.47;2.95;;;22.90;84.50;;;-147.18;100.00;67318.16;4990348;28;20148;-83
2022/08/15 05:49:26;;;;;;;6.15;2.83;;;22.90;84.80;;;-147.18;100.00;67318.16;5007532;28;20042;-82
2022/08/15 05:52:17;;;;;;;4.95;2.90;;;22.90;84.70;;;-147.18;100.00;67318.16;4992433;28;20046;-83
2022/08/15 05:55:06;;;;;;;10.48;2.92;;;23.00;84.70;;;-147.18;100.00;67318.16;4992119;28;20053;-80
2022/08/15 05:57:45;;;;;;;6.10;3.22;;;23.00;84.60;;;-147.18;100.00;67318.16;4992378;28;20129;-82
2022/08/15 06:00:16;;;;;;;10.85;3.13;;;22.90;85.70;;;-147.18;100.00;67318.16;4991065;28;20050;-83
2022/08/15 06:02:52;;;;;;;12.63;3.35;;;23.00;85.90;;;-147.18;100.00;67318.16;4990727;28;20053;-83
2022/08/15 06:05:29;;;;;;;7.25;2.97;;;23.00;85.50;;;-147.18;100.00;67318.16;4982552;28;20121;-82
2022/08/15 06:08:00;;;;;;;5.07;2.75;;;23.00;85.30;;;-147.18;100.00;67318.16;4976622;28;20056;-83
2022/08/15 06:10:33;;;;;;;6.93;2.80;;;23.00;85.30;;;-147.18;100.00;67318.16;5006517;28;20072;-84
2022/08/15 06:13:09;;;;;;;9.35;2.90;;;23.00;85.50;;;-147.18;100.00;67318.16;5013404;28;20285;-80
2022/08/15 06:15:48;;;;;;;8.20;3.00;;;23.00;85.20;;;-147.18;100.00;67318.16;5011627;28;20053;-77
2022/08/15 06:18:18;;;;;;;9.77;2.85;;;23.00;85.70;;;-147.18;100.00;67318.16;5009236;28;20120;-77
2022/08/15 06:20:56;;;;;;;5.82;2.45;;;23.00;86.20;;;-147.18;100.00;67318.16;4995378;28;20038;-77
2022/08/15 06:23:39;;;;;;;10.00;2.97;;;23.00;86.50;;;-147.18;100.00;67318.16;4983068;28;20052;-77
2022/08/15 06:26:30;;;;;;;9.77;3.10;;;23.10;86.80;;;-147.18;100.00;67318.16;4995112;28;20133;-77
2022/08/15 06:29:13;;;;;;;9.30;3.03;;;23.10;86.30;;;-147.18;100.00;67318.16;4995717;28;20074;-77
2022/08/15 06:31:48;;;;;;;6.93;2.63;;;23.10;86.10;;;-147.18;100.00;67318.16;4995581;28;20077;-77
2022/08/15 06:34:27;;;;;;;8.10;3.00;;;23.10;86.40;;;-147.18;100.00;67318.16;4995429;28;20053;-77
2022/08/15 06:37:07;;;;;;;5.35;3.05;;;23.20;85.80;;;-147.18;100.00;67318.16;4992368;28;20125;-77
2022/08/15 06:39:43;;;;;;;8.00;2.55;;;23.10;86.20;;;-147.18;100.00;67318.16;4999513;28;20043;-77
2022/08/15 06:42:21;;;;;;;6.45;2.85;;;23.20;86.00;;;-147.18;100.00;67318.16;4987518;28;20132;-77
2022/08/15 06:44:59;;;;;;;5.75;2.90;;;23.20;85.80;;;-147.18;100.00;67318.16;4984974;28;20046;-77
2022/08/15 06:47:28;;;;;;;11.18;2.60;;;23.20;85.70;;;-147.18;100.00;67318.16;4985406;28;20056;-77
2022/08/15 06:50:03;;;;;;;7.85;3.05;;;23.30;85.80;;;-147.18;100.00;67318.16;5005215;28;20091;-77
2022/08/15 06:52:34;;;;;;;6.57;2.80;;;23.30;85.80;;;-147.18;100.00;67318.16;5018673;28;20108;-77
2022/08/15 06:55:04;;;;;;;7.72;2.80;;;23.30;86.30;;;-147.18;100.00;67318.16;5005129;28;20053;-77
2022/08/15 06:57:45;;;;;;;5.05;2.47;;;23.30;86.40;;;-147.18;100.00;67318.16;4986833;28;20053;-77
2022/08/15 07:00:21;;;;;;;6.97;2.70;;;23.30;86.30;;;-147.18;100.00;67318.16;4996323;28;20046;-77
2022/08/15 07:03:06;;;;;;;6.15;2.40;;;23.30;86.50;;;-147.18;100.00;67318.16;4991350;28;20050;-77
2022/08/15 07:05:46;;;;;;;9.00;2.97;;;23.30;87.00;;;-147.18;100.00;67318.16;4987438;28;20046;-77
2022/08/15 07:08:30;;;;;;;6.93;2.80;;;23.40;86.80;;;-147.18;100.00;67318.16;4995270;28;20037;-77
2022/08/15 07:11:09;;;;;;;7.45;3.03;;;23.40;86.70;;;-147.18;100.00;67318.16;5012529;23;20128;-85
2022/08/15 07:14:06;;;;;;;8.52;2.67;;;23.40;86.50;;;-147.18;100.00;67318.16;5010944;28;20042;-85
2022/08/15 07:16:45;;;;;;;7.65;2.90;;;23.40;86.60;;;-147.18;100.00;67318.16;4995665;28;20053;-86
2022/08/15 07:19:13;;;;;;;5.00;2.83;;;23.40;86.30;;;-147.18;100.00;67318.16;4985552;28;20049;-85
2022/08/15 07:21:49;;;;;;;5.95;2.65;;;23.40;86.00;;;-147.18;100.00;67318.16;4983246;28;20513;-85
2022/08/15 07:24:32;;;;;;;7.88;2.70;;;23.40;86.10;;;-147.18;100.00;67318.16;5016374;28;20042;-86
2022/08/15 07:27:09;;;;;;;8.45;2.83;;;23.40;86.10;;;-147.18;100.00;67318.16;5010922;28;20057;-86
2022/08/15 07:29:47;;;;;;;6.05;2.70;;;23.40;86.00;;;-147.18;100.00;67318.16;5010595;28;20053;-86
2022/08/15 07:32:23;;;;;;;6.65;2.55;;;23.40;86.40;;;-147.18;100.00;67318.16;5009689;28;20042;-83
2022/08/15 07:35:00;;;;;;;7.93;2.70;;;23.40;86.40;;;-147.18;100.00;67318.16;5003904;28;20041;-84
2022/08/15 07:37:34;;;;;;;6.32;2.92;;;23.40;86.30;;;-147.18;100.00;67318.16;5005981;28;20049;-83
2022/08/15 07:40:08;;;;;;;6.22;2.90;;;23.40;86.30;;;-147.18;100.00;67318.16;4993444;28;20090;-85
2022/08/15 07:42:42;;;;;;;6.38;2.75;;;23.40;86.60;;;-147.18;100.00;67318.16;4986267;28;20046;-84
2022/08/15 07:45:18;;;;;;;9.48;2.60;;;23.40;86.60;;;-147.18;100.00;67318.16;5000622;28;20074;-83
2022/08/15 07:47:58;;;;;;;7.80;2.97;;;23.50;87.60;;;-147.18;100.00;67318.16;4996805;28;20046;-84
2022/08/15 07:50:38;;;;;;;6.18;2.60;;;23.50;88.00;;;-147.18;100.00;67318.16;4990118;28;20050;-84
2022/08/15 07:53:16;;;;;;;7.95;2.92;;;23.50;87.80;;;-147.18;100.00;67318.16;4988551;28;20065;-84
2022/08/15 07:56:08;;;;;;;5.72;2.63;;;23.50;87.60;;;-147.18;100.00;67318.16;4984896;28;20042;-83
2022/08/15 07:58:35;;;;;;;;;;;23.50;87.40;;;-147.18;100.00;67318.16;4985020;28;20512;-84
2022/08/15 08:01:14;;;;;;;9.13;3.08;;;23.60;87.70;;;-147.18;100.00;67318.16;5006655;28;19930;-84
2022/08/15 08:03:51;;;;;;;6.57;2.60;;;23.60;87.40;;;-147.18;100.00;67318.16;4997036;28;20046;-84
2022/08/15 08:06:29;;;;;;;6.22;2.80;;;23.60;87.90;;;-147.18;100.00;67318.16;5000367;28;20082;-84
2022/08/15 08:09:12;;;;;;;6.25;2.58;;;23.70;87.70;;;-147.18;100.00;67318.16;4996447;28;20443;-84
2022/08/15 08:11:50;;;;;;;8.35;3.08;;;23.70;88.70;;;-147.18;100.00;67318.16;4989735;28;20046;-84
2022/08/15 08:14:35;;;;;;;6.20;2.60;;;23.70;88.30;;;-147.18;100.00;67318.16;4982254;28;20157;-86
2022/08/15 08:17:13;;;;;;;7.13;2.60;;;23.70;88.80;;;-147.18;100.00;67318.16;5007369;28;20050;-86
2022/08/15 08:19:58;;;;;;;9.55;2.90;;;23.80;88.60;;;-147.18;100.00;67318.16;4995158;28;20053;-86
2022/08/15 08:22:40;;;;;;;6.55;2.70;;;23.80;88.00;;;-147.18;100.00;67318.16;4999464;28;20048;-86
2022/08/15 08:25:15;;;;;;;6.72;2.70;;;23.80;88.20;;;-147.18;100.00;67318.16;4998527;28;20126;-84
2022/08/15 08:27:58;;;;;;;6.18;2.72;;;23.80;88.60;;;-147.18;100.00;67318.16;4977942;28;20038;-83
2022/08/15 08:30:34;;;;;;;6.72;2.80;;;23.90;88.50;;;-147.18;100.00;67318.16;4986338;28;20077;-84
2022/08/15 08:33:14;;;;;;;9.20;2.95;;;23.90;88.00;;;-147.18;100.00;67318.16;4978596;28;20064;-85
2022/08/15 08:35:50;;;;;;;17.23;3.70;;;23.90;88.00;;;-147.18;100.00;67318.16;4984166;28;20169;-85
2022/08/15 08:38:35;;;;;;;8.18;3.10;;;23.90;88.30;;;-147.18;100.00;67318.16;4979405;28;20555;-85
2022/08/15 08:41:29;;;;;;;10.90;3.65;;;23.90;88.60;;;-147.18;100.00;67318.16;5003444;28;20120;-85
2022/08/15 08:44:12;;;;;;;8.25;3.33;;;23.90;90.00;;;-147.18;100.00;67318.16;4982098;28;20550;-83
2022/08/15 08:47:00;;;;;;;9.43;3.03;;;23.90;90.70;;;-147.18;100.00;67318.16;4989474;28;20125;-83
2022/08/15 08:49:38;;;;;;;7.57;3.28;;;24.00;90.20;;;-147.18;100.00;67318.16;4991228;28;20125;-83
2022/08/15 08:52:27;;;;;;;8.45;3.00;;;24.00;89.10;;;-147.18;100.00;67318.16;5000932;28;20080;-84
2022/08/15 08:55:02;;;;;;;6.95;3.22;;;24.00;88.90;;;-147.18;100.00;67318.16;4990324;28;20050;-85
2022/08/15 08:57:36;;;;;;;7.57;2.95;;;24.00;88.90;;;-147.18;100.00;67318.16;4980802;28;20125;-84
2022/08/15 09:00:12;;;;;;;13.85;3.42;;;24.00;89.30;;;-147.18;100.00;67318.16;4984614;28;20035;-84
2022/08/15 09:02:46;;;;;;;5.50;2.78;;;24.00;89.20;;;-147.18;100.00;67318.16;5009578;28;20046;-85
2022/08/15 09:05:28;;;;;;;14.48;3.60;;;24.10;89.70;;;-147.18;100.00;67318.16;4995238;28;20089;-84
2022/08/15 09:08:00;;;;;;;8.63;3.45;;;24.10;89.00;;;-147.18;100.00;67318.16;4990203;28;20133;-84
2022/08/15 09:10:34;;;;;;;10.38;3.42;;;24.10;89.30;;;-147.18;100.00;67318.16;5001168;28;20029;-84
2022/08/15 09:15:56;;;;;;;7.72;2.92;;;24.10;89.60;;;-147.18;100.00;67318.16;5017476;28;20045;-84
2022/08/15 09:18:29;;;;;;;7.80;3.45;;;24.20;89.80;;;-147.18;100.00;67318.16;5018909;28;20125;-84
2022/08/15 09:20:58;;;;;;;8.90;3.20;;;24.20;90.60;;;-147.18;100.00;67318.16;4999056;28;20121;-84
2022/08/15 09:23:29;;;;;;;8.60;3.42;;;24.20;90.40;;;-147.18;100.00;67318.16;5013574;28;20041;-84
2022/08/15 09:26:08;;;;;;;7.57;3.38;;;24.20;89.70;;;-147.18;100.00;67318.16;5019152;28;20077;-84
2022/08/15 09:28:38;;;;;;;6.78;3.03;;;24.30;89.40;;;-147.18;100.00;67318.16;5008673;28;20038;-84
2022/08/15 09:31:13;;;;;;;6.78;3.55;;;24.20;91.40;;;-147.18;100.00;67318.16;5008009;28;20037;-84
2022/08/15 09:34:22;;;;;;;7.57;3.30;;;24.30;89.70;;;-147.18;100.00;67318.16;4994017;28;20470;-85
2022/08/15 09:37:28;;;;;;;13.70;3.42;;;24.30;89.40;;;-147.18;100.00;67318.16;4996549;28;20042;-84
2022/08/15 09:40:39;;;;;;;9.95;3.40;;;24.30;90.70;;;-147.18;100.00;67318.16;4997923;28;20061;-85
2022/08/15 09:43:55;;;;;;;6.10;3.45;;;24.30;89.80;;;-147.18;100.00;67318.16;5006087;28;20042;-85
2022/08/15 09:47:14;;;;;;;7.00;3.25;;;24.30;90.00;;;-147.18;100.00;67318.16;4978061;28;20054;-85
2022/08/15 09:50:16;;;;;;;7.78;3.30;;;24.40;89.50;;;-147.18;100.00;67318.16;5000338;28;20108;-85
2022/08/15 09:52:58;;;;;;;8.45;3.47;;;24.40;89.40;;;-147.18;100.00;67318.16;4957820;28;20055;-84
2022/08/15 09:55:34;;;;;;;8.63;3.65;;;24.40;88.90;;;-147.18;100.00;67318.16;4974612;28;20127;-85
2022/08/15 09:58:20;;;;;;;8.13;4.25;;;24.40;90.10;;;-147.18;100.00;67318.16;4994578;28;20041;-85
2022/08/15 10:01:07;;;;;;;6.85;3.97;;;24.50;89.30;;;-147.18;100.00;67318.16;5003938;28;20038;-85
2022/08/15 10:03:57;;;;;;;8.63;3.78;;;24.50;90.00;;;-147.18;100.00;67318.16;4990772;28;20035;-85
2022/08/15 10:06:28;;;;;;;8.40;3.90;;;24.50;89.20;;;-147.18;100.00;67318.16;4982011;28;20141;-85
2022/08/15 10:09:17;;;;;;;16.13;4.10;;;24.60;90.00;;;-147.18;100.00;67318.16;5001013;28;20046;-85
2022/08/15 10:12:31;;;;;;;7.30;3.83;;;24.60;89.30;;;-147.18;100.00;67318.16;5013684;28;20046;-84
2022/08/15 10:15:30;;;;;;;6.28;3.67;;;24.60;90.10;;;-147.18;100.00;67318.16;4977949;28;20053;-85
2022/08/15 10:17:59;;;;;;;8.35;3.97;;;24.70;90.30;;;-147.18;100.00;67318.16;4986682;28;20044;-84
2022/08/15 10:20:58;;;;;;;6.00;3.78;;;24.70;90.50;;;-147.18;100.00;67318.16;5003054;28;20718;-85
2022/08/15 10:23:41;;;;;;;9.48;3.88;;;24.70;89.90;;;-147.18;100.00;67318.16;4991779;28;20407;-84
2022/08/15 10:26:22;;;;;;;10.38;3.80;;;24.70;91.40;;;-147.18;100.00;67318.16;4973068;28;20491;-84
2022/08/15 10:29:13;;;;;;;7.72;3.83;;;24.80;90.10;;;-147.18;100.00;67318.16;4990903;28;20125;-84
2022/08/15 10:31:52;;;;;;;10.90;4.18;;;24.70;89.70;;;-147.18;100.00;67318.16;4986893;28;20042;-84
2022/08/15 10:34:37;;;;;;;10.40;3.90;;;24.80;89.30;;;-147.18;100.00;67318.16;4987158;28;20500;-85
2022/08/15 10:37:24;;;;;;;16.40;4.13;;;24.80;90.50;;;-147.18;100.00;67318.16;4987734;28;20497;-84
2022/08/15 10:40:28;;;;;;;8.75;4.07;;;24.90;90.30;;;-147.18;100.00;67318.16;4973913;28;20042;-84